createdAt,value
2018-12-15T00:02:10.922Z,0.40
2018-12-15T00:04:38.381Z,0.30
2018-12-15T00:07:05.845Z,0.20
2018-12-15T00:09:33.305Z,0.30
2018-12-15T00:12:00.738Z,0.40
2018-12-15T00:14:28.179Z,0.40
2018-12-15T00:16:55.681Z,0.40
2018-12-15T00:19:23.105Z,0.30
2018-12-15T00:21:50.544Z,0.10
2018-12-15T00:24:17.980Z,0.10
2018-12-15T00:26:45.464Z,0.30
2018-12-15T00:29:12.904Z,0.40
2018-12-15T00:31:40.348Z,0.40
2018-12-15T00:34:07.784Z,0.30
2018-12-15T00:36:35.273Z,0.20
2018-12-15T00:39:02.892Z,0.20
2018-12-15T00:41:30.357Z,-0.10
2018-12-15T00:43:57.832Z,0.00
2018-12-15T00:46:25.262Z,0.00
2018-12-15T00:48:52.705Z,0.00
2018-12-15T00:51:20.142Z,0.10
2018-12-15T00:53:47.586Z,0.10
2018-12-15T00:56:15.044Z,0.10
2018-12-15T00:58:42.505Z,0.20
2018-12-15T01:01:09.936Z,0.30
2018-12-15T01:03:37.392Z,0.30
2018-12-15T01:06:04.885Z,0.10
2018-12-15T01:08:32.450Z,0.10
2018-12-15T01:10:59.927Z,0.20
2018-12-15T01:13:27.375Z,0.20
2018-12-15T01:15:54.800Z,0.20
2018-12-15T01:18:22.249Z,0.10
2018-12-15T01:20:49.699Z,0.00
2018-12-15T01:23:17.221Z,0.00
2018-12-15T01:25:44.680Z,0.10
2018-12-15T01:28:12.196Z,0.10
2018-12-15T01:30:39.629Z,0.10
2018-12-15T01:33:07.100Z,0.10
2018-12-15T01:35:34.542Z,0.10
2018-12-15T01:38:02.053Z,0.00
2018-12-15T01:40:29.584Z,0.00
2018-12-15T01:42:57.072Z,0.00
2018-12-15T01:45:24.508Z,0.10
2018-12-15T01:47:51.948Z,0.10
2018-12-15T01:50:19.392Z,0.20
2018-12-15T01:52:46.862Z,0.30
2018-12-15T01:55:14.295Z,0.20
2018-12-15T01:57:41.732Z,0.30
2018-12-15T02:00:09.277Z,0.30
2018-12-15T02:02:36.802Z,0.40
2018-12-15T02:05:04.543Z,0.40
2018-12-15T02:07:32.033Z,0.50
2018-12-15T02:09:59.473Z,0.40
2018-12-15T02:12:26.917Z,0.30
2018-12-15T02:14:54.353Z,0.30
2018-12-15T02:17:21.781Z,0.20
2018-12-15T02:19:49.288Z,0.30
2018-12-15T02:22:16.759Z,0.40
2018-12-15T02:24:44.218Z,0.30
2018-12-15T02:27:11.683Z,0.30
2018-12-15T02:29:39.164Z,0.30
2018-12-15T02:32:06.688Z,0.30
2018-12-15T02:34:34.135Z,0.20
2018-12-15T02:37:01.579Z,0.20
2018-12-15T02:39:29.043Z,0.20
2018-12-15T02:41:56.492Z,0.20
2018-12-15T02:44:23.961Z,0.30
2018-12-15T02:46:51.413Z,0.20
2018-12-15T02:49:18.861Z,0.20
2018-12-15T02:51:46.312Z,0.10
2018-12-15T02:54:13.783Z,0.20
2018-12-15T02:56:41.237Z,0.10
2018-12-15T02:59:08.762Z,0.10
2018-12-15T03:01:36.201Z,0.20
2018-12-15T03:04:03.718Z,0.10
2018-12-15T03:06:31.156Z,0.00
2018-12-15T03:08:58.599Z,-0.10
2018-12-15T03:11:26.105Z,0.00
2018-12-15T03:13:53.540Z,0.00
2018-12-15T03:16:20.976Z,0.10
2018-12-15T03:18:48.452Z,0.10
2018-12-15T03:21:16.332Z,0.10
2018-12-15T03:23:43.772Z,0.00
2018-12-15T03:26:11.250Z,-0.10
2018-12-15T03:28:38.690Z,-0.10
2018-12-15T03:31:06.127Z,-0.30
2018-12-15T03:33:33.570Z,-0.30
2018-12-15T03:36:01.004Z,-0.30
2018-12-15T03:38:28.456Z,-0.20
2018-12-15T03:40:55.933Z,-0.20
2018-12-15T03:43:23.390Z,-0.10
2018-12-15T03:45:50.860Z,-0.20
2018-12-15T03:48:18.329Z,-0.10
2018-12-15T03:50:45.755Z,0.00
2018-12-15T03:53:13.261Z,0.10
2018-12-15T03:55:40.688Z,0.10
2018-12-15T03:58:08.126Z,0.10
2018-12-15T04:00:35.604Z,0.10
2018-12-15T04:03:03.088Z,0.10
2018-12-15T04:05:30.541Z,0.10
2018-12-15T04:07:57.977Z,0.20
2018-12-15T04:10:25.418Z,0.10
2018-12-15T04:12:52.854Z,0.10
2018-12-15T04:15:20.327Z,0.10
2018-12-15T04:17:47.770Z,0.10
2018-12-15T04:20:15.297Z,0.10
2018-12-15T04:22:42.755Z,0.10
2018-12-15T04:25:10.466Z,0.20
2018-12-15T04:27:37.909Z,0.20
2018-12-15T04:30:06.520Z,0.10
2018-12-15T04:32:34.031Z,0.10
2018-12-15T04:35:01.567Z,0.20
2018-12-15T04:37:29.097Z,0.10
2018-12-15T04:39:56.540Z,0.20
2018-12-15T04:42:23.974Z,0.20
2018-12-15T04:44:51.451Z,0.20
2018-12-15T04:47:19.142Z,0.30
2018-12-15T04:49:46.626Z,0.40
2018-12-15T04:52:14.164Z,0.40
2018-12-15T04:54:41.598Z,0.50
2018-12-15T04:57:09.058Z,0.50
2018-12-15T04:59:36.504Z,0.50
2018-12-15T05:02:03.999Z,0.50
2018-12-15T05:04:31.456Z,0.60
2018-12-15T05:06:58.945Z,0.60
2018-12-15T05:09:26.531Z,0.70
2018-12-15T05:11:53.986Z,0.70
2018-12-15T05:14:21.448Z,0.70
2018-12-15T05:16:48.884Z,0.80
2018-12-15T05:19:16.365Z,0.70
2018-12-15T05:21:43.797Z,0.60
2018-12-15T05:24:11.277Z,0.60
2018-12-15T05:26:38.734Z,0.40
2018-12-15T05:29:06.168Z,0.40
2018-12-15T05:31:33.630Z,0.30
2018-12-15T05:34:01.072Z,0.30
2018-12-15T05:36:28.509Z,0.30
2018-12-15T05:38:55.940Z,0.30
2018-12-15T05:41:23.380Z,0.30
2018-12-15T05:43:50.812Z,0.40
2018-12-15T05:46:18.281Z,0.50
2018-12-15T05:48:45.733Z,0.60
2018-12-15T05:51:13.221Z,0.30
2018-12-15T05:53:40.660Z,0.30
2018-12-15T05:56:08.125Z,0.40
2018-12-15T05:58:35.565Z,0.30
2018-12-15T06:01:03.015Z,0.30
2018-12-15T06:03:30.457Z,0.30
2018-12-15T06:05:57.903Z,0.10
2018-12-15T06:08:25.344Z,0.10
2018-12-15T06:10:52.775Z,0.10
2018-12-15T06:13:20.235Z,0.00
2018-12-15T06:15:47.668Z,0.00
2018-12-15T06:18:15.104Z,0.20
2018-12-15T06:20:42.584Z,0.30
2018-12-15T06:23:10.023Z,0.50
2018-12-15T06:25:37.507Z,0.50
2018-12-15T06:28:04.936Z,0.40
2018-12-15T06:30:32.390Z,0.50
2018-12-15T06:32:59.817Z,0.50
2018-12-15T06:35:27.269Z,0.40
2018-12-15T06:37:54.725Z,0.30
2018-12-15T06:40:22.193Z,0.40
2018-12-15T06:42:49.664Z,0.50
2018-12-15T06:45:17.128Z,0.50
2018-12-15T06:47:44.568Z,0.40
2018-12-15T06:50:12.041Z,0.30
2018-12-15T06:52:39.477Z,0.30
2018-12-15T06:55:07.004Z,0.30
2018-12-15T06:57:34.434Z,0.30
2018-12-15T07:00:01.944Z,0.40
2018-12-15T07:02:29.489Z,0.40
2018-12-15T07:04:56.921Z,0.50
2018-12-15T07:07:24.360Z,0.40
2018-12-15T07:09:51.816Z,0.40
2018-12-15T07:12:19.244Z,0.30
2018-12-15T07:14:46.684Z,0.20
2018-12-15T07:17:14.136Z,0.30
2018-12-15T07:19:41.573Z,0.40
2018-12-15T07:22:09.012Z,0.40
2018-12-15T07:24:36.549Z,0.30
2018-12-15T07:27:04.028Z,0.30
2018-12-15T07:29:31.549Z,0.10
2018-12-15T07:31:59.008Z,0.10
2018-12-15T07:34:26.441Z,0.00
2018-12-15T07:36:53.898Z,0.10
2018-12-15T07:39:21.380Z,0.10
2018-12-15T07:41:48.825Z,0.10
2018-12-15T07:44:16.265Z,0.00
2018-12-15T07:46:43.745Z,0.00
2018-12-15T07:49:11.269Z,0.00
2018-12-15T07:51:38.805Z,0.20
2018-12-15T07:54:06.251Z,0.20
2018-12-15T07:56:33.705Z,0.10
2018-12-15T07:59:01.144Z,0.10
2018-12-15T08:01:28.644Z,0.10
2018-12-15T08:03:56.078Z,0.20
2018-12-15T08:06:23.510Z,0.30
2018-12-15T08:08:50.943Z,0.30
2018-12-15T08:11:24.135Z,0.40
2018-12-15T08:13:53.544Z,0.40
2018-12-15T08:16:20.987Z,0.40
2018-12-15T08:18:48.445Z,0.50
2018-12-15T08:21:15.876Z,0.40
2018-12-15T08:23:43.388Z,0.30
2018-12-15T08:26:10.832Z,0.10
2018-12-15T08:28:38.275Z,0.10
2018-12-15T08:31:05.744Z,0.20
2018-12-15T08:33:33.256Z,0.20
2018-12-15T08:36:00.695Z,0.30
2018-12-15T08:38:28.144Z,0.10
2018-12-15T08:40:55.617Z,0.00
2018-12-15T08:43:23.068Z,0.00
2018-12-15T08:45:50.547Z,0.00
2018-12-15T08:48:18.053Z,0.10
2018-12-15T08:50:45.825Z,0.10
2018-12-15T08:53:13.276Z,0.00
2018-12-15T08:55:40.752Z,0.10
2018-12-15T08:58:08.236Z,0.10
2018-12-15T09:00:35.769Z,0.20
2018-12-15T09:03:03.304Z,0.40
2018-12-15T09:05:30.767Z,0.40
2018-12-15T09:07:58.313Z,0.40
2018-12-15T09:10:25.905Z,0.40
2018-12-15T09:12:53.377Z,0.40
2018-12-15T09:15:20.836Z,0.20
2018-12-15T09:17:48.337Z,0.20
2018-12-15T09:20:15.771Z,0.10
2018-12-15T09:22:43.219Z,0.20
2018-12-15T09:25:10.658Z,0.20
2018-12-15T09:27:38.114Z,0.30
2018-12-15T09:30:06.116Z,0.40
2018-12-15T09:32:33.568Z,0.50
2018-12-15T09:35:01.007Z,0.60
2018-12-15T09:37:28.469Z,0.50
2018-12-15T09:39:55.900Z,0.40
2018-12-15T09:42:23.384Z,0.40
2018-12-15T09:44:50.845Z,0.50
2018-12-15T09:47:18.368Z,0.40
2018-12-15T09:49:45.857Z,0.30
2018-12-15T09:52:13.341Z,0.20
2018-12-15T09:54:40.804Z,0.10
2018-12-15T09:57:08.279Z,0.00
2018-12-15T09:59:35.712Z,0.00
2018-12-15T10:02:03.199Z,-0.10
2018-12-15T10:04:30.622Z,-0.10
2018-12-15T10:06:58.092Z,-0.10
2018-12-15T10:09:25.555Z,-0.10
2018-12-15T10:11:53.029Z,-0.10
2018-12-15T10:14:20.499Z,-0.20
2018-12-15T10:16:47.942Z,-0.20
2018-12-15T10:19:15.408Z,-0.20
2018-12-15T10:21:42.908Z,-0.10
2018-12-15T10:24:10.391Z,-0.10
2018-12-15T10:26:37.822Z,0.00
2018-12-15T10:29:07.250Z,0.10
2018-12-15T10:31:40.476Z,0.10
2018-12-15T10:34:07.923Z,0.00
2018-12-15T10:36:35.379Z,-0.10
2018-12-15T10:39:04.764Z,-0.10
2018-12-15T10:41:32.357Z,-0.10
2018-12-15T10:44:09.896Z,0.00
2018-12-15T10:46:37.347Z,-0.10
2018-12-15T10:49:04.805Z,0.00
2018-12-15T10:51:32.259Z,0.00
2018-12-15T10:53:59.696Z,0.00
2018-12-15T10:56:27.152Z,0.00
2018-12-15T10:58:54.593Z,0.10
2018-12-15T11:01:22.176Z,0.10
2018-12-15T11:03:49.716Z,0.00
2018-12-15T11:06:17.211Z,0.00
2018-12-15T11:08:44.713Z,-0.10
2018-12-15T11:11:12.226Z,-0.10
2018-12-15T11:13:39.668Z,-0.10
2018-12-15T11:16:07.124Z,-0.10
2018-12-15T11:18:34.679Z,-0.20
2018-12-15T11:21:02.123Z,-0.10
2018-12-15T11:23:29.576Z,-0.10
2018-12-15T11:25:57.072Z,-0.10
2018-12-15T11:28:24.513Z,-0.10
2018-12-15T11:30:51.945Z,-0.20
2018-12-15T11:33:19.419Z,-0.20
2018-12-15T11:35:46.848Z,-0.20
2018-12-15T11:38:14.318Z,-0.20
2018-12-15T11:40:41.764Z,-0.20
2018-12-15T11:43:09.204Z,-0.30
2018-12-15T11:45:36.670Z,-0.30
2018-12-15T11:48:04.259Z,-0.30
2018-12-15T11:50:31.710Z,-0.30
2018-12-15T11:52:59.151Z,-0.20
2018-12-15T11:55:26.604Z,-0.10
2018-12-15T11:57:54.077Z,-0.10
2018-12-15T12:00:21.576Z,0.00
2018-12-15T12:02:49.564Z,-0.10
2018-12-15T12:05:17.009Z,0.00
2018-12-15T12:07:44.501Z,0.00
2018-12-15T12:10:11.933Z,0.00
2018-12-15T12:12:39.415Z,-0.10
2018-12-15T12:15:06.974Z,-0.20
2018-12-15T12:17:34.413Z,0.00
2018-12-15T12:20:02.676Z,0.00
2018-12-15T12:22:30.160Z,-0.10
2018-12-15T12:24:57.653Z,-0.10
2018-12-15T12:27:25.095Z,-0.10
2018-12-15T12:29:52.563Z,-0.20
2018-12-15T12:32:20.008Z,-0.20
2018-12-15T12:34:47.466Z,-0.20
2018-12-15T12:37:14.924Z,-0.20
2018-12-15T12:39:42.361Z,-0.20
2018-12-15T12:42:09.821Z,-0.10
2018-12-15T12:44:37.260Z,-0.10
2018-12-15T12:47:04.738Z,0.00
2018-12-15T12:49:32.196Z,0.10
2018-12-15T12:51:59.701Z,0.20
2018-12-15T12:54:27.111Z,0.30
2018-12-15T12:56:54.569Z,0.20
2018-12-15T12:59:22.048Z,0.10
2018-12-15T13:01:49.521Z,0.20
2018-12-15T13:04:17.008Z,0.10
2018-12-15T13:06:44.462Z,0.00
2018-12-15T13:09:11.924Z,0.00
2018-12-15T13:11:39.417Z,0.00
2018-12-15T13:14:06.992Z,-0.10
2018-12-15T13:16:34.511Z,-0.10
2018-12-15T13:19:02.018Z,0.10
2018-12-15T13:21:29.507Z,0.10
2018-12-15T13:23:56.944Z,0.10
2018-12-15T13:26:24.380Z,0.10
2018-12-15T13:28:51.830Z,0.00
2018-12-15T13:31:19.338Z,-0.10
2018-12-15T13:33:46.892Z,-0.10
2018-12-15T13:36:14.660Z,-0.20
2018-12-15T13:38:42.132Z,-0.20
2018-12-15T13:41:09.672Z,-0.20
2018-12-15T13:43:37.128Z,-0.30
2018-12-15T13:46:04.640Z,-0.40
2018-12-15T13:48:32.158Z,-0.50
2018-12-15T13:50:59.636Z,-0.50
2018-12-15T13:53:28.065Z,-0.40
2018-12-15T13:55:55.652Z,-0.30
2018-12-15T13:58:23.120Z,-0.30
2018-12-15T14:00:50.607Z,-0.30
2018-12-15T14:03:18.097Z,-0.20
2018-12-15T14:05:45.557Z,-0.20
2018-12-15T14:08:13.068Z,-0.20
2018-12-15T14:10:40.541Z,-0.30
2018-12-15T14:13:08.030Z,-0.30
2018-12-15T14:15:35.609Z,-0.20
2018-12-15T14:18:03.085Z,-0.10
2018-12-15T14:20:30.561Z,0.10
2018-12-15T14:22:57.992Z,0.00
2018-12-15T14:25:25.487Z,-0.10
2018-12-15T14:27:52.930Z,-0.10
2018-12-15T14:30:20.436Z,-0.10
2018-12-15T14:32:47.892Z,-0.20
2018-12-15T14:35:15.368Z,-0.20
2018-12-15T14:37:42.897Z,-0.10
2018-12-15T14:40:10.413Z,-0.20
2018-12-15T14:42:37.866Z,-0.30
2018-12-15T14:45:05.969Z,-0.30
2018-12-15T14:47:33.480Z,-0.30
2018-12-15T14:50:00.932Z,-0.40
2018-12-15T14:52:28.390Z,-0.40
2018-12-15T14:54:55.827Z,-0.40
2018-12-15T14:57:25.222Z,-0.60
2018-12-15T14:59:52.679Z,-0.60
2018-12-15T15:02:20.244Z,-0.60
2018-12-15T15:04:47.731Z,-0.70
2018-12-15T15:07:15.160Z,-0.70
2018-12-15T15:09:42.613Z,-0.70
2018-12-15T15:12:10.105Z,-0.80
2018-12-15T15:14:37.576Z,-0.80
2018-12-15T15:17:05.969Z,-0.80
2018-12-15T15:19:33.450Z,-0.80
2018-12-15T15:22:00.885Z,-0.80
2018-12-15T15:24:28.364Z,-0.80
2018-12-15T15:26:55.787Z,-0.70
2018-12-15T15:29:23.243Z,-0.70
2018-12-15T15:31:50.684Z,-0.70
2018-12-15T15:34:18.202Z,-0.70
2018-12-15T15:36:45.690Z,-0.60
2018-12-15T15:39:13.153Z,-0.70
2018-12-15T15:41:40.636Z,-0.80
2018-12-15T15:44:08.471Z,-0.70
2018-12-15T15:46:35.933Z,-0.70
2018-12-15T15:49:03.403Z,-0.70
2018-12-15T15:51:30.871Z,-0.60
2018-12-15T15:53:58.439Z,-0.60
2018-12-15T15:56:25.951Z,-0.60
2018-12-15T15:58:53.424Z,-0.70
2018-12-15T16:01:20.868Z,-0.70
2018-12-15T16:03:48.332Z,-0.70
2018-12-15T16:06:15.788Z,-0.60
2018-12-15T16:08:43.224Z,-0.40
2018-12-15T16:11:10.676Z,-0.60
2018-12-15T16:13:38.104Z,-0.60
2018-12-15T16:16:14.334Z,-0.70
2018-12-15T16:18:41.803Z,-0.60
2018-12-15T16:21:09.232Z,-0.60
2018-12-15T16:23:36.712Z,-0.60
2018-12-15T16:26:04.276Z,-0.60
2018-12-15T16:28:31.735Z,-0.60
2018-12-15T16:30:59.188Z,-0.60
2018-12-15T16:33:26.661Z,-0.60
2018-12-15T16:35:54.205Z,-0.60
2018-12-15T16:38:21.700Z,-0.70
2018-12-15T16:40:49.477Z,-0.70
2018-12-15T16:43:17.047Z,-0.70
2018-12-15T16:45:44.496Z,-0.60
2018-12-15T16:48:12.054Z,-0.60
2018-12-15T16:50:39.511Z,-0.60
2018-12-15T16:53:07.068Z,-0.60
2018-12-15T16:55:34.558Z,-0.60
2018-12-15T16:58:02.118Z,-0.60
2018-12-15T17:00:29.595Z,-0.70
2018-12-15T17:02:57.170Z,-0.70
2018-12-15T17:05:24.757Z,-0.70
2018-12-15T17:07:52.212Z,-0.70
2018-12-15T17:10:19.697Z,-0.80
2018-12-15T17:12:47.145Z,-0.80
2018-12-15T17:15:14.619Z,-0.80
2018-12-15T17:17:42.106Z,-0.80
2018-12-15T17:20:10.300Z,-0.90
2018-12-15T17:22:37.742Z,-0.90
2018-12-15T17:25:06.419Z,-0.90
2018-12-15T17:27:33.971Z,-0.80
2018-12-15T17:30:01.524Z,-0.80
2018-12-15T17:32:28.967Z,-0.80
2018-12-15T17:34:56.419Z,-0.80
2018-12-15T17:37:23.907Z,-0.80
2018-12-15T17:39:51.351Z,-0.80
2018-12-15T17:42:18.803Z,-0.90
2018-12-15T17:44:51.987Z,-0.90
2018-12-15T17:47:19.471Z,-0.80
2018-12-15T17:49:46.955Z,-0.80
2018-12-15T17:52:14.412Z,-0.90
2018-12-15T17:54:42.728Z,-1.00
2018-12-15T17:57:10.166Z,-1.00
2018-12-15T17:59:37.642Z,-1.00
2018-12-15T18:02:05.126Z,-1.00
2018-12-15T18:04:32.716Z,-0.90
2018-12-15T18:07:00.171Z,-0.80
2018-12-15T18:09:27.733Z,-0.90
2018-12-15T18:11:55.162Z,-0.90
2018-12-15T18:14:22.615Z,-0.80
2018-12-15T18:16:50.110Z,-0.70
2018-12-15T18:19:18.050Z,-0.80
2018-12-15T18:21:45.482Z,-0.80
2018-12-15T18:24:12.938Z,-0.70
2018-12-15T18:26:40.388Z,-0.70
2018-12-15T18:29:07.904Z,-0.60
2018-12-15T18:31:35.354Z,-0.60
2018-12-15T18:34:02.910Z,-0.70
2018-12-15T18:36:30.522Z,-0.80
2018-12-15T18:38:58.089Z,-0.80
2018-12-15T18:41:25.589Z,-0.80
2018-12-15T18:43:53.189Z,-0.90
2018-12-15T18:46:20.610Z,-0.80
2018-12-15T18:48:48.055Z,-0.80
2018-12-15T18:51:16.534Z,-0.80
2018-12-15T18:53:44.152Z,-0.80
2018-12-15T18:56:11.642Z,-0.80
2018-12-15T18:58:39.084Z,-0.70
2018-12-15T19:01:06.592Z,-0.80
2018-12-15T19:03:34.265Z,-0.70
2018-12-15T19:06:01.754Z,-0.70
2018-12-15T19:08:29.206Z,-0.80
2018-12-15T19:10:56.695Z,-0.80
2018-12-15T19:13:24.144Z,-0.70
2018-12-15T19:15:51.628Z,-0.70
2018-12-15T19:18:19.127Z,-0.70
2018-12-15T19:20:46.588Z,-0.70
2018-12-15T19:23:14.038Z,-0.70
2018-12-15T19:25:41.513Z,-0.60
2018-12-15T19:28:09.177Z,-0.80
2018-12-15T19:30:36.674Z,-0.80
2018-12-15T19:33:04.462Z,-0.80
2018-12-15T19:35:31.904Z,-0.70
2018-12-15T19:37:59.348Z,-0.80
2018-12-15T19:40:27.681Z,-0.70
2018-12-15T19:42:55.398Z,-0.80
2018-12-15T19:45:22.848Z,-0.90
2018-12-15T19:47:50.327Z,-1.00
2018-12-15T19:50:17.849Z,-0.90
2018-12-15T19:52:45.322Z,-0.90
2018-12-15T19:55:12.812Z,-0.90
2018-12-15T19:57:40.436Z,-0.90
2018-12-15T20:00:08.096Z,-1.00
2018-12-15T20:02:35.538Z,-1.00
2018-12-15T20:05:03.069Z,-1.10
2018-12-15T20:07:30.525Z,-1.10
2018-12-15T20:09:57.957Z,-1.10
2018-12-15T20:12:25.418Z,-1.10
2018-12-15T20:14:52.848Z,-1.10
2018-12-15T20:17:20.296Z,-1.20
2018-12-15T20:19:47.865Z,-1.10
2018-12-15T20:22:15.318Z,-1.10
2018-12-15T20:24:43.534Z,-1.20
2018-12-15T20:27:11.010Z,-1.20
2018-12-15T20:29:38.537Z,-1.20
2018-12-15T20:32:06.081Z,-1.30
2018-12-15T20:34:33.513Z,-1.30
2018-12-15T20:37:00.980Z,-1.40
2018-12-15T20:39:28.493Z,-1.40
2018-12-15T20:41:56.004Z,-1.30
2018-12-15T20:44:23.481Z,-1.40
2018-12-15T20:46:51.025Z,-1.30
2018-12-15T20:49:18.475Z,-1.30
2018-12-15T20:51:45.953Z,-1.30
2018-12-15T20:54:17.519Z,-1.30
2018-12-15T20:56:44.942Z,-1.30
2018-12-15T20:59:12.383Z,-1.40
2018-12-15T21:01:39.935Z,-1.40
2018-12-15T21:04:07.414Z,-1.50
2018-12-15T21:06:34.965Z,-1.50
2018-12-15T21:09:02.707Z,-1.60
2018-12-15T21:11:30.173Z,-1.60
2018-12-15T21:13:57.624Z,-1.70
2018-12-15T21:16:25.066Z,-1.70
2018-12-15T21:18:52.647Z,-1.70
2018-12-15T21:21:20.124Z,-1.70
2018-12-15T21:23:47.573Z,-1.80
2018-12-15T21:26:15.080Z,-1.80
2018-12-15T21:28:42.569Z,-1.80
2018-12-15T21:31:10.035Z,-1.70
2018-12-15T21:33:37.486Z,-1.80
2018-12-15T21:36:04.985Z,-1.70
2018-12-15T21:38:32.413Z,-1.80
2018-12-15T21:40:59.880Z,-1.80
2018-12-15T21:43:27.436Z,-1.90
2018-12-15T21:45:54.884Z,-1.80
2018-12-15T21:48:22.335Z,-1.80
2018-12-15T21:50:49.858Z,-1.80
2018-12-15T21:53:17.289Z,-1.80
2018-12-15T21:55:44.725Z,-1.80
2018-12-15T21:58:12.180Z,-1.80
2018-12-15T22:00:39.689Z,-1.80
2018-12-15T22:03:07.117Z,-1.80
2018-12-15T22:05:34.564Z,-1.90
2018-12-15T22:08:02.034Z,-1.90
2018-12-15T22:10:29.548Z,-1.90
2018-12-15T22:12:57.056Z,-1.90
2018-12-15T22:15:24.491Z,-2.00
2018-12-15T22:17:51.933Z,-2.00
2018-12-15T22:20:19.886Z,-2.00
2018-12-15T22:22:47.373Z,-2.00
2018-12-15T22:25:14.849Z,-1.90
2018-12-15T22:27:42.325Z,-1.90
2018-12-15T22:30:09.903Z,-2.00
2018-12-15T22:32:37.337Z,-2.10
2018-12-15T22:35:05.161Z,-2.10
2018-12-15T22:37:32.642Z,-2.20
2018-12-15T22:40:00.087Z,-2.20
2018-12-15T22:42:27.698Z,-2.20
2018-12-15T22:44:55.139Z,-2.20
2018-12-15T22:47:22.598Z,-2.30
2018-12-15T22:49:50.050Z,-2.20
2018-12-15T22:52:17.489Z,-2.30
2018-12-15T22:54:44.954Z,-2.30
2018-12-15T22:57:12.561Z,-2.40
2018-12-15T22:59:40.010Z,-2.50
2018-12-15T23:02:07.485Z,-2.50
2018-12-15T23:04:34.907Z,-2.50
2018-12-15T23:07:02.366Z,-2.50
2018-12-15T23:09:29.846Z,-2.50
2018-12-15T23:11:57.295Z,-2.50
2018-12-15T23:14:25.577Z,-2.50
2018-12-15T23:16:53.115Z,-2.50
2018-12-15T23:19:20.573Z,-2.60
2018-12-15T23:21:48.076Z,-2.60
2018-12-15T23:24:15.542Z,-2.60
2018-12-15T23:26:42.990Z,-2.50
2018-12-15T23:29:10.501Z,-2.50
2018-12-15T23:31:37.960Z,-2.70
2018-12-15T23:34:05.518Z,-2.70
2018-12-15T23:36:32.983Z,-2.70
2018-12-15T23:39:00.429Z,-2.80
2018-12-15T23:41:27.910Z,-2.70
2018-12-15T23:43:55.365Z,-2.80
2018-12-15T23:46:23.259Z,-2.80
2018-12-15T23:48:50.722Z,-2.90
2018-12-15T23:51:18.194Z,-2.90
2018-12-15T23:53:45.644Z,-2.90
2018-12-15T23:56:13.099Z,-2.90
2018-12-15T23:58:40.552Z,-3.00
